METAR stanice u blizini

 

LYNI - Nis, Yugoslavia
Distance from station: JZ 40km
Ažurirano: 30/07/2021 18:30
Vedro
Vedro
 Pravac vetra SZ
Vetar: SZ 19 km/h
Temperatura: 33°C
Tačka rose: 17°C
Vlažnost: 38%
Pritisak: 1008 hPa
Pregled: Vedro
Vidljivost: greater than 10 km
2021/07/30 16:30 LYNI 301630Z 32010KT CAVOK 33/17 Q1008 NOSIG
LYKV - Kraljevo, Yugoslavia
Distance from station: ZSZ 136km
Ažurirano: 30/07/2021 18:30
Vedro
Vedro
 Pravac vetra SI
Vetar: SI 11 km/h
Temperatura: 33°C
Heat Index: 34°C
Tačka rose: 19°C
Vlažnost: 44%
Pritisak: 1009 hPa
Pregled: Vedro
Vidljivost: greater than 10 km
2021/07/30 16:30 LYKV 301630Z 04006KT 360V130 CAVOK 33/19 Q1009 NOSIG
LBSF - Sofia (observato, Bulgaria
Distance from station: JI 138km
Ažurirano: 30/07/2021 18:30
Vedro
Vedro
 Pravac vetra SZ
Vetar: SZ 13 km/h
Temperatura: 34°C
Tačka rose: 9°C
Vlažnost: 21%
Pritisak: 1011 hPa
Pregled: Vedro
Vidljivost: greater than 10 km
2021/07/30 16:30 LBSF 301630Z 32007KT 290V010 CAVOK 34/09 Q1011 NOSIG
 
BKPR - Prishtina, Yugoslavia
Distance from station: JZ 147km
Ažurirano: 30/07/2021 18:30
Vedro
Vedro
 Pravac vetra ZJZ
Vetar: ZJZ 22 km/h
Temperatura: 34°C
Tačka rose: 12°C
Vlažnost: 26%
Pritisak: 1011 hPa
Pregled: Vedro
Vidljivost: greater than 10 km
2021/07/30 16:30 BKPR 301630Z 25012KT CAVOK 34/12 Q1011 NOSIG
LRCV - Craiova, Romania
Distance from station: SI 154km
Ažurirano: 30/07/2021 18:30
Vedro
Vedro
 Pravac vetra SSI
Vetar: SSI 7 km/h
Temperatura: 35°C
Tačka rose: 13°C
Vlažnost: 26%
Pritisak: 1008 hPa
Pregled: Vedro
Vidljivost: greater than 10 km
2021/07/30 16:30 LRCV 301630Z 03004KT 360V120 CAVOK 35/13 Q1008
LWSK - Skopje/Petrovac, Macedonia
Distance from station: JJZ 185km
Ažurirano: 30/07/2021 18:30
Vedro
Vedro
 Pravac vetra ZSZ
Vetar: ZSZ 9 km/h
Temperatura: 38°C
Tačka rose: 6°C
Vlažnost: 14%
Pritisak: 1008 hPa
Pregled: Vedro
Vidljivost: greater than 10 km
2021/07/30 16:30 LWSK 301630Z 29005KT 250V340 CAVOK 38/06 Q1008 NOSIG
 
LYVR - Vrsac, Yugoslavia
Distance from station: SSZ 189km
Ažurirano: 30/07/2021 18:30
Vedro
Vedro
 Pravac vetra ZSZ
Vetar: ZSZ 9 km/h
Temperatura: 33°C
Tačka rose: 15°C
Vlažnost: 34%
Pritisak: 1009 hPa
Pregled: Vedro
Vidljivost: greater than 10 km
2021/07/30 16:30 LYVR 301630Z AUTO 29005KT CAVOK 33/15 Q1009
LYUZ - Uzice-Ponikve, Yugoslavia
Distance from station: Z 207km
Ažurirano: 30/07/2021 18:30
Vedro
Vedro
 Pravac vetra SSI
Vetar: SSI 7 km/h
Temperatura: 27°C
Heat Index: 27°C
Tačka rose: 15°C
Vlažnost: 48%
Pritisak: 1016 hPa
Pregled: Vedro
Vidljivost: greater than 10 km
2021/07/30 16:30 LYUZ 301630Z AUTO 03004KT 350V070 CAVOK 27/15 Q1016
LYBE - Belgrade/Surcin, Yugoslavia
Distance from station: SZ 209km
Ažurirano: 30/07/2021 18:30
Vedro
Vedro
 Pravac vetra SSZ
Vetar: SSZ 7 km/h
Temperatura: 33°C
Tačka rose: 16°C
Vlažnost: 36%
Pritisak: 1009 hPa
Pregled: Vedro
Vidljivost: greater than 10 km
2021/07/30 16:30 LYBE 301630Z 34004KT CAVOK 33/16 Q1009 NOSIG
 
LYBT - Batajnica, Yugoslavia
Distance from station: SZ 219km
Ažurirano: 30/07/2021 18:30
Vedro
Vedro
 Pravac vetra varies
Vetar: varies 4 km/h
Temperatura: 32°C
Heat Index: 33°C
Tačka rose: 18°C
Vlažnost: 43%
Pritisak: 1009 hPa
Pregled: Vedro
Vidljivost: greater than 10 km
2021/07/30 16:30 LYBT 301630Z VRB02KT CAVOK 32/18 Q1009 NOSIG
LRTR - Timisoara/Giarma, Romania
Distance from station: SSZ 260km
Ažurirano: 30/07/2021 18:30
Vedro
Vedro
 Pravac vetra S
Vetar: S 6 km/h
Temperatura: 34°C
Tačka rose: 12°C
Vlažnost: 26%
Pritisak: 1009 hPa
Pregled: Vedro
Vidljivost: greater than 10 km
2021/07/30 16:30 LRTR 301630Z 01003KT 270V050 CAVOK 34/12 Q1009
LBPD - Plovdiv, Bulgaria
Distance from station: JI 263km
Ažurirano: 30/07/2021 18:30
Vedro
Vedro
 Pravac vetra ISI
Vetar: ISI 20 km/h
Temperatura: 36°C
Tačka rose: 15°C
Vlažnost: 28%
Pritisak: 1007 hPa
Oblaci: Vedro
Vidljivost: 10 km
2021/07/30 16:30 LBPD 301630Z AUTO 06011KT 9999 NCD 36/15 Q1007 NOSIG
 
LYPG - Podgorica(Titogr, Yugoslavia
Distance from station: ZJZ 278km
Ažurirano: 30/07/2021 18:30
Vedro
Vedro
 Pravac vetra JJI
Vetar: JJI 19 km/h
Temperatura: 34°C
Tačka rose: 13°C
Vlažnost: 28%
Pritisak: 1009 hPa
Pregled: Vedro
Vidljivost: greater than 10 km
2021/07/30 16:30 LYPG 301630Z 15010KT 120V180 CAVOK 34/13 Q1009 NOSIG
LBGO - Gorna Orechovist, Bulgaria
Distance from station: I 285km
Ažurirano: 30/07/2021 18:30
Vedro
Vedro
 Pravac vetra calm
Vetar: Tišina
Temperatura: 34°C
Heat Index: 41°C
Tačka rose: 24°C
Vlažnost: 56%
Pritisak: 1007 hPa
Oblaci: Vedro
Vidljivost: 10 km
2021/07/30 16:30 LBGO 301630Z AUTO 00000KT 9999 NCD 34/24 Q1007 NOSIG
LRSB - Sibiu/Turnisor, Romania
Distance from station: SSI 286km
Ažurirano: 30/07/2021 18:30
Few Clouds
Few Clouds
 Pravac vetra JI
Vetar: JI 9 km/h
Temperatura: 28°C
Heat Index: 30°C
Tačka rose: 21°C
Vlažnost: 66%
Pritisak: 1012 hPa
Oblaci: Few Clouds
Vidljivost: 10 km
Cloud details: Few Clouds 1372 m
2021/07/30 16:30 LRSB 301630Z 14005KT 9999 FEW045 28/21 Q1012
 
LWOH - Ohrid, Macedonia
Distance from station: JJZ 292km
Ažurirano: 30/07/2021 18:30
Vedro
Vedro
 Pravac vetra JZ
Vetar: JZ 15 km/h
Temperatura: 31°C
Tačka rose: 5°C
Vlažnost: 19%
Pritisak: 1014 hPa
Pregled: Vedro
Vidljivost: greater than 10 km
2021/07/30 16:30 LWOH 301630Z 23008KT CAVOK 31/05 Q1014
LQTZ - Tuzla, Yugoslavia
Distance from station: ZSZ 298km
Ažurirano: 30/07/2021 18:30
Vedro
Vedro
 Pravac vetra SI
Vetar: SI 9 km/h
Temperatura: 32°C
Heat Index: 33°C
Tačka rose: 18°C
Vlažnost: 43%
Pritisak: 1009 hPa
Pregled: Vedro
Vidljivost: greater than 10 km
2021/07/30 16:30 LQTZ 301630Z 05005KT CAVOK 32/18 Q1009
LRAR - Arad, Romania
Distance from station: SSZ 301km
Ažurirano: 30/07/2021 18:30
Vedro
Vedro
 Pravac vetra S
Vetar: S 7 km/h
Temperatura: 33°C
Tačka rose: 14°C
Vlažnost: 32%
Pritisak: 1009 hPa
Pregled: Vedro
Vidljivost: greater than 10 km
2021/07/30 16:30 LRAR 301630Z 01004KT CAVOK 33/14 Q1009
 
LYTV - Tivat, Yugoslavia
Distance from station: ZJZ 315km
Ažurirano: 30/07/2021 18:30
Vedro
Vedro
 Pravac vetra varies
Vetar: varies 2 km/h
Temperatura: 31°C
Heat Index: 32°C
Tačka rose: 17°C
Vlažnost: 43%
Pritisak: 1009 hPa
Pregled: Vedro
Vidljivost: greater than 10 km
2021/07/30 16:30 LYTV 301630Z VRB01KT CAVOK 31/17 Q1009 NOSIG
LATI - Tirana, Albania
Distance from station: JZ 316km
Ažurirano: 30/07/2021 18:20
Vedro
Vedro
 Pravac vetra ZJZ
Vetar: ZJZ 11 km/h
Temperatura: 33°C
Tačka rose: 17°C
Vlažnost: 38%
Pritisak: 1010 hPa
Pregled: Vedro
Vidljivost: greater than 10 km
2021/07/30 16:20 LATI 301620Z 25006KT CAVOK 33/17 Q1010 NOSIG
LQBK - Banja Luka, Yugoslavia
Distance from station: SZ 426km
Ažurirano: 30/07/2021 18:30
Vedro
Vedro
 Pravac vetra ISI
Vetar: ISI 13 km/h
Temperatura: 33°C
Heat Index: 34°C
Tačka rose: 18°C
Vlažnost: 41%
Pritisak: 1009 hPa
Pregled: Vedro
Vidljivost: greater than 10 km
2021/07/30 16:30 LQBK 301630Z 06007KT CAVOK 33/18 Q1009 NOSIG
 
LDOS - Osijek, Croatia
Distance from station: SSZ 360km
Ažurirano: 30/07/2021 18:30
Vedro
Vedro
 Pravac vetra I
Vetar: I 11 km/h
Temperatura: 32°C
Heat Index: 33°C
Tačka rose: 18°C
Vlažnost: 43%
Pritisak: 1009 hPa
Pregled: Vedro
Vidljivost: greater than 10 km
2021/07/30 16:30 LDOS 301630Z 09006KT CAVOK 32/18 Q1009
LDDU - Dubrovnik-Cilipi, Croatia
Distance from station: JZ 352km
Ažurirano: 30/07/2021 18:30
Vedro
Vedro
 Pravac vetra ZSZ
Vetar: ZSZ 13 km/h
Temperatura: 29°C
Heat Index: 29°C
Tačka rose: 16°C
Vlažnost: 45%
Pritisak: 1010 hPa
Pregled: Vedro
Vidljivost: greater than 10 km
2021/07/30 16:30 LDDU 301630Z 30007KT 260V320 CAVOK 29/16 Q1010 NOSIG
LQMO - Mostar Airport, Bosnia-Herzegovina
Distance from station: Z 359km
Ažurirano: 30/07/2021 18:00
Vedro
Vedro
 Pravac vetra J
Vetar: J 17 km/h
Temperatura: 37°C
Tačka rose: 12°C
Vlažnost: 22%
Pritisak: 1007 hPa
Pregled: Vedro
Vidljivost: greater than 10 km
2021/07/30 16:00 LQMO 301600Z 19009KT 160V220 CAVOK 37/12 Q1007
 
LQSA - Sarajevo/Butmir, Yugoslavia
Distance from station: Z 311km
Ažurirano: 30/07/2021 18:30
Vedro
Vedro
 Pravac vetra SSZ
Vetar: SSZ 11 km/h
Temperatura: 33°C
Tačka rose: 14°C
Vlažnost: 32%
Pritisak: 1011 hPa
Pregled: Vedro
Vidljivost: greater than 10 km
2021/07/30 16:30 LQSA 301630Z 33006KT CAVOK 33/14 Q1011 NOSIG
LDSP - Split/Kastel Sta, Croatia
Distance from station: Z 468km
Ažurirano: 30/07/2021 18:30
Vedro
Vedro
 Pravac vetra JZ
Vetar: JZ 17 km/h
Temperatura: 33°C
Tačka rose: 14°C
Vlažnost: 32%
Pritisak: 1009 hPa
Pregled: Vedro
Vidljivost: greater than 10 km
2021/07/30 16:30 LDSP 301630Z 23009KT CAVOK 33/14 Q1009 NOSIG
LDZD - Zadar/Zemunik, Croatia
Distance from station: ZSZ 567km
Ažurirano: 30/07/2021 18:30
Vedro
Vedro
 Pravac vetra Z
Vetar: Z 17 km/h
Temperatura: 33°C
Tačka rose: 12°C
Vlažnost: 28%
Pritisak: 1010 hPa
Pregled: Vedro
Vidljivost: greater than 10 km
2021/07/30 16:30 LDZD 301630Z 27009KT CAVOK 33/12 Q1010 BECMG 31005KT
 
LDZA - Zagreb/Pleso, Croatia
Distance from station: SZ 555km
Ažurirano: 30/07/2021 18:30
Vedro
Vedro
 Pravac vetra Z
Vetar: Z 6 km/h
Temperatura: 34°C
Tačka rose: 18°C
Vlažnost: 39%
Pritisak: 1008 hPa
Pregled: Vedro
Vidljivost: greater than 10 km
2021/07/30 16:30 LDZA 301630Z 26003KT 190V300 CAVOK 34/18 Q1008 NOSIG
LJCE - Cerklje, Slovenia
Distance from station: SZ 680km
Ažurirano: 30/07/2021 18:30
Vedro
Vedro
 Pravac vetra J
Vetar: J 11 km/h
Temperatura: 33°C
Heat Index: 34°C
Tačka rose: 19°C
Vlažnost: 44%
Pritisak: 1008 hPa
Oblaci: Vedro
Vidljivost: 10 km
2021/07/30 16:30 LJCE 301630Z AUTO 18006KT 9999 NCD 33/19 Q1008
LJMB - Maribor, Slovenia
Distance from station: SZ 616km
Ažurirano: 30/07/2021 18:30
Delimično oblačno
Delimično oblačno
 Pravac vetra JJI
Vetar: JJI 22 km/h
Temperatura: 32°C
Heat Index: 33°C
Tačka rose: 18°C
Vlažnost: 43%
Pritisak: 1008 hPa
Oblaci: Delimično oblačno
Vidljivost: 10 km
Cloud details: Few Clouds 1311 m
Delimično oblačno 4572 m
2021/07/30 16:30 LJMB 301630Z 16012KT 9999 FEW043 SCT150 32/18 Q1008
 
LJLJ - Ljubljana/Brnik, Slovenia
Distance from station: SZ 671km
Ažurirano: 30/07/2021 18:30
Delimično oblačno
Delimično oblačno
 Pravac vetra ZJZ
Vetar: ZJZ 7 km/h
Temperatura: 28°C
Heat Index: 28°C
Tačka rose: 17°C
Vlažnost: 51%
Pritisak: 1010 hPa
Oblaci: Delimično oblačno
Vidljivost: 10 km
Cloud details: Few Clouds 1524 m
Delimično oblačno 7620 m
2021/07/30 16:30 LJLJ 301630Z 24004KT 190V280 9999 FEW050 SCT250 28/17 Q1010 NOSIG
LDRI - Rijeka, Croatia
Distance from station: SZ 650km
Ažurirano: 30/07/2021 18:30
Vedro
Vedro
 Pravac vetra SSZ
Vetar: SSZ 7 km/h
Temperatura: 31°C
Heat Index: 33°C
Tačka rose: 20°C
Vlažnost: 52%
Pritisak: 1009 hPa
Pregled: Vedro
Vidljivost: greater than 10 km
2021/07/30 16:30 LDRI 301630Z 34004KT 300V030 CAVOK 31/20 Q1009
LDPL - Pula, Croatia
Distance from station: ZSZ 686km
Ažurirano: 30/07/2021 18:30
Vedro
Vedro
 Pravac vetra JZ
Vetar: JZ 9 km/h
Temperatura: 31°C
Heat Index: 31°C
Tačka rose: 16°C
Vlažnost: 40%
Pritisak: 1009 hPa
Pregled: Vedro
Vidljivost: greater than 10 km
2021/07/30 16:30 LDPL 301630Z 22005KT 160V250 CAVOK 31/16 Q1009 NOSIG
 
LJPZ - Portorož, Slovenia
Distance from station: ZSZ 720km
Ažurirano: 30/07/2021 18:30
Vedro
Vedro
 Pravac vetra varies
Vetar: varies 4 km/h
Temperatura: 30°C
Heat Index: 32°C
Tačka rose: 20°C
Vlažnost: 55%
Pritisak: 1009 hPa
Pregled: Vedro
Vidljivost: greater than 10 km
2021/07/30 16:30 LJPZ 301630Z VRB02KT CAVOK 30/20 Q1009